London, Canada
Current Conditions -  °F | °C
As of 1:16 PM on Saturday 25 Oct 2014 (Local Time) from CYXU Reporting Station
Haze Haze  
Wind Chill: 55°   Ceiling: 1400
Heat Index: 55°   Visibility: 5mi
Dew Point: 52°   Wind: 14mph
Humidity: 88%   Direction: 290°WNW
Pressure: 29.72"   Gusts: NA
Location:  42.99°N, 81.25°W
Report Text: CYXU 251716Z 29012KT 5SM BR OVC014 13/11 A2972 RMK SC8 CIG RAG SLP067 DENSITY ALT 1100FT
Loading
Personal Weather Stations






























Interactive Weather Map
Tropical Storm Tracking
New forecast layout! Learn more

10-Day Weather Forecast

Advertisements
Track Severe Weather on mobile